San Diego, CA

1:57 PM PDT on July 23, 2016 (GMT -0700)
Miramar Marine Corps Air Station-Mitscher | | Change Station

Elev 476 ft 32.86 °N, 117.14 °W | Updated 2 minutes ago

Scattered Clouds
Scattered Clouds
80 °F
Feels Like 82 °F
N
14
Wind Variable Wind from SSW

Today
High -- | Low -- °F
--% Chance of Precip.
Yesterday
High -- | Low -- °F
Precip. -- in
Pressure 29.84 in
Visibility 10.0 miles
Clouds Few 1000 ft
Few 3000 ft
Scattered Clouds 20000 ft
Heat Index 82 °F
Dew Point 63 °F
Humidity 56%
Rainfall 0.00 in
Snow Depth Not available.
5:56 AM 7:53 PM
Waning Gibbous, 82% visible
METAR KNKX 232055Z 21012KT 10SM FEW010 FEW030 SCT200 27/17 A2986 RMK AO2 SLP103 T02670172 51008
Pressure 29.84 in
Visibility 10.0 miles
Clouds Few 1000 ft
Few 3000 ft
Scattered Clouds 20000 ft
Heat Index 82 °F
Dew Point 63 °F
Humidity 56%
Rainfall 0.00 in
Snow Depth Not available.
5:56 AM 7:53 PM
Waning Gibbous, 82% visible
METAR KNKX 232055Z 21012KT 10SM FEW010 FEW030 SCT200 27/17 A2986 RMK AO2 SLP103 T02670172 51008

10-Day Weather Forecast

Almanac

Astronomy

Jul. 23, 2016 Rise Set
Actual Time
Civil Twilight
Nautical Twilight
Astronomical Twilight
Moon
Length of Visible Light
Length of Day
Tomorrow will be .
, % of the Moon is Illuminated

Today's Extremes

State Highs State Lows

Community

WunderPhotos

Upload Photos

1,926,919 photos uploaded!

WunderBlog® & News

Nearby

Air Quality

  Air Quality AQ Index Pollutant
Not available.

Snow Depth

Station Depth Elevation

Earthquake Activity

City Distance Mag. Time & Date
Minimum magnitude displayed is 2.5.

Coastal Water Temperatures

Place Temperature

Stations

Nearby Weather Stations

Station Location Temp. Windchill Dew Point Humidity Wind Precip. Elev Updated Type
                   

Watches & Warnings

There are currently no watches in effect.